PWSweather.com
Personal Weather Stations
Station Observations
728536
Kristiansand, FlekkeroyNO 4625

KristiansandFlekkeroyNO 4625

Lat: 58.0860587, Lon: 8.0151742

Elevation: 36

Station Type: Davis Vantage Pro2

http://www.paulen.no

Latest ConditionsUpdated 2:20:02 PM GMT+01:01 Saturday, Mar 25, 2017
Currently Today's Max Today's Min Today's Average
Temperature 45.9°F7.7°C 47.4°F8.6°C 41.3°F5.2°C 43.4°F6.3°C
Dew Point 42.2°F5.7°C 42.5°F5.8°C 34.7°F1.5°C 38.5°F3.6°C
Winds 4.6 mph SSW7.4 kmh SSW 10.4 mph SW16.7 kmh SW - 4.8 mph 7.7 kmh
Wind Gusts 6.9 mph11.1 kmh 15.0 mph24.1 kmh - -
Humidity 87% 95% 63% 83%
Pressure 30.32 in1026.8 mb 30.38 in1028.8 mb 30.32 in1026.8 mb -
Hour Temp Dew Point Humidity Winds Wind Gusts Pressure Precip Precip Rate Daily Precip Total
02:20 PM 45.9°F7.7°C 42.2°F5.7°C 87% 4.6 mph SSW7.4 kmh SSW 6.9 mph11.1 kmh 30.32 in1026.8 mb - 0.00 in0.0 mm 0.00 in0.0 mm
02:10 PM 45.9°F7.7°C 42.5°F5.8°C 88% 8.1 mph SW13.0 kmh SW 12.7 mph20.4 kmh 30.33 in1027.1 mb - 0.00 in0.0 mm 0.00 in0.0 mm
02:00 PM 45.6°F7.6°C 42.0°F5.6°C 87% 5.8 mph SW9.3 kmh SW 9.2 mph14.8 kmh 30.33 in1027.1 mb - 0.00 in0.0 mm 0.00 in0.0 mm
01:50 PM 45.2°F7.3°C 41.9°F5.5°C 88% 6.9 mph SW11.1 kmh SW 13.8 mph22.2 kmh 30.33 in1027.1 mb - 0.00 in0.0 mm 0.00 in0.0 mm
01:40 PM 44.9°F7.2°C 41.6°F5.3°C 88% 8.1 mph SW13.0 kmh SW 11.5 mph18.5 kmh 30.34 in1027.4 mb - 0.00 in0.0 mm 0.00 in0.0 mm
01:30 PM 45.5°F7.5°C 41.9°F5.5°C 87% 6.9 mph SW11.1 kmh SW 10.4 mph16.7 kmh 30.34 in1027.4 mb - 0.00 in0.0 mm 0.00 in0.0 mm
01:20 PM 46.7°F8.2°C 41.8°F5.4°C 83% 9.2 mph SW14.8 kmh SW 15.0 mph24.1 kmh 30.34 in1027.4 mb - 0.00 in0.0 mm 0.00 in0.0 mm
01:10 PM 47.4°F8.6°C 41.2°F5.1°C 79% 5.8 mph SW9.3 kmh SW 9.2 mph14.8 kmh 30.34 in1027.4 mb - 0.00 in0.0 mm 0.00 in0.0 mm
01:00 PM 47.1°F8.4°C 41.6°F5.3°C 81% 3.5 mph SSW5.6 kmh SSW 6.9 mph11.1 kmh 30.33 in1027.1 mb - 0.00 in0.0 mm 0.00 in0.0 mm
12:50 PM 46.8°F8.2°C 41.0°F5.0°C 80% 5.8 mph SW9.3 kmh SW 9.2 mph14.8 kmh 30.34 in1027.4 mb - 0.00 in0.0 mm 0.00 in0.0 mm
12:40 PM 45.9°F7.7°C 40.4°F4.7°C 81% 5.8 mph SW9.3 kmh SW 6.9 mph11.1 kmh 30.35 in1027.8 mb - 0.00 in0.0 mm 0.00 in0.0 mm
12:30 PM 45.8°F7.7°C 40.3°F4.6°C 81% 8.1 mph SW13.0 kmh SW 13.8 mph22.2 kmh 30.35 in1027.8 mb - 0.00 in0.0 mm 0.00 in0.0 mm
12:20 PM 46.1°F7.8°C 40.3°F4.6°C 80% 8.1 mph SW13.0 kmh SW 13.8 mph22.2 kmh 30.35 in1027.8 mb - 0.00 in0.0 mm 0.00 in0.0 mm
12:10 PM 46.1°F7.8°C 39.9°F4.4°C 79% 9.2 mph SW14.8 kmh SW 12.7 mph20.4 kmh 30.36 in1028.1 mb - 0.00 in0.0 mm 0.00 in0.0 mm
12:00 PM 46.4°F8.0°C 40.3°F4.6°C 79% 8.1 mph SW13.0 kmh SW 10.4 mph16.7 kmh 30.37 in1028.4 mb - 0.00 in0.0 mm 0.00 in0.0 mm
11:50 AM 45.5°F7.5°C 40.0°F4.4°C 81% 8.1 mph SW13.0 kmh SW 11.5 mph18.5 kmh 30.38 in1028.8 mb - 0.00 in0.0 mm 0.00 in0.0 mm
11:40 AM 45.3°F7.4°C 39.9°F4.4°C 81% 10.4 mph SW16.7 kmh SW 13.8 mph22.2 kmh 30.38 in1028.8 mb - 0.00 in0.0 mm 0.00 in0.0 mm
11:30 AM 46.1°F7.8°C 39.6°F4.2°C 78% 9.2 mph SW14.8 kmh SW 13.8 mph22.2 kmh 30.38 in1028.8 mb - 0.00 in0.0 mm 0.00 in0.0 mm
11:20 AM 46.5°F8.1°C 39.0°F3.9°C 75% 6.9 mph SSW11.1 kmh SSW 11.5 mph18.5 kmh 30.38 in1028.8 mb - 0.00 in0.0 mm 0.00 in0.0 mm
11:10 AM 46.0°F7.8°C 38.9°F3.8°C 76% 9.2 mph SW14.8 kmh SW 13.8 mph22.2 kmh 30.37 in1028.4 mb - 0.00 in0.0 mm 0.00 in0.0 mm
11:00 AM 46.5°F8.1°C 38.7°F3.7°C 74% 6.9 mph SSW11.1 kmh SSW 13.8 mph22.2 kmh 30.37 in1028.4 mb - 0.00 in0.0 mm 0.00 in0.0 mm
10:50 AM 45.2°F7.3°C 39.4°F4.1°C 80% 5.8 mph SSW9.3 kmh SSW 10.4 mph16.7 kmh 30.37 in1028.4 mb - 0.00 in0.0 mm 0.00 in0.0 mm
10:40 AM 44.5°F6.9°C 38.4°F3.6°C 79% 9.2 mph S14.8 kmh S 11.5 mph18.5 kmh 30.38 in1028.8 mb - 0.00 in0.0 mm 0.00 in0.0 mm
10:30 AM 46.2°F7.9°C 38.3°F3.5°C 74% 6.9 mph S11.1 kmh S 11.5 mph18.5 kmh 30.38 in1028.8 mb - 0.00 in0.0 mm 0.00 in0.0 mm
10:20 AM 46.5°F8.1°C 36.9°F2.7°C 69% 6.9 mph SSW11.1 kmh SSW 6.9 mph11.1 kmh 30.38 in1028.8 mb - 0.00 in0.0 mm 0.00 in0.0 mm
10:10 AM 46.7°F8.2°C 36.3°F2.4°C 67% 5.8 mph S9.3 kmh S 5.8 mph9.3 kmh 30.38 in1028.8 mb - 0.00 in0.0 mm 0.00 in0.0 mm
10:00 AM 46.7°F8.2°C 36.3°F2.4°C 67% 4.6 mph SW7.4 kmh SW 8.1 mph13.0 kmh 30.38 in1028.8 mb - 0.00 in0.0 mm 0.00 in0.0 mm
09:50 AM 47.3°F8.5°C 35.7°F2.1°C 64% 5.8 mph SW9.3 kmh SW 10.4 mph16.7 kmh 30.38 in1028.8 mb - 0.00 in0.0 mm 0.00 in0.0 mm
09:40 AM 46.6°F8.1°C 34.7°F1.5°C 63% 1.2 mph N1.9 kmh N 3.5 mph5.6 kmh 30.38 in1028.8 mb - 0.00 in0.0 mm 0.00 in0.0 mm
09:30 AM 46.0°F7.8°C 35.3°F1.8°C 66% 4.6 mph WSW7.4 kmh WSW 8.1 mph13.0 kmh 30.37 in1028.4 mb - 0.00 in0.0 mm 0.00 in0.0 mm
09:20 AM 45.6°F7.6°C 35.3°F1.8°C 67% 3.5 mph WNW5.6 kmh WNW 5.8 mph9.3 kmh 30.37 in1028.4 mb - 0.00 in0.0 mm 0.00 in0.0 mm
09:10 AM 45.2°F7.3°C 34.9°F1.6°C 67% 5.8 mph NW9.3 kmh NW 9.2 mph14.8 kmh 30.37 in1028.4 mb - 0.00 in0.0 mm 0.00 in0.0 mm
09:00 AM 44.8°F7.1°C 34.9°F1.6°C 68% 9.2 mph NW14.8 kmh NW 11.5 mph18.5 kmh 30.37 in1028.4 mb - 0.00 in0.0 mm 0.00 in0.0 mm
08:50 AM 44.4°F6.9°C 35.3°F1.8°C 70% 6.9 mph NW11.1 kmh NW 8.1 mph13.0 kmh 30.37 in1028.4 mb - 0.00 in0.0 mm 0.00 in0.0 mm
08:40 AM 44.0°F6.7°C 35.6°F2.0°C 72% 5.8 mph NW9.3 kmh NW 9.2 mph14.8 kmh 30.38 in1028.8 mb - 0.00 in0.0 mm 0.00 in0.0 mm
08:30 AM 43.7°F6.5°C 35.6°F2.0°C 73% 5.8 mph NW9.3 kmh NW 6.9 mph11.1 kmh 30.37 in1028.4 mb - 0.00 in0.0 mm 0.00 in0.0 mm
08:20 AM 43.6°F6.4°C 35.9°F2.2°C 74% 6.9 mph NW11.1 kmh NW 11.5 mph18.5 kmh 30.37 in1028.4 mb - 0.00 in0.0 mm 0.00 in0.0 mm
08:10 AM 43.3°F6.3°C 35.6°F2.0°C 74% 9.2 mph WNW14.8 kmh WNW 12.7 mph20.4 kmh 30.37 in1028.4 mb - 0.00 in0.0 mm 0.00 in0.0 mm
08:00 AM 43.0°F6.1°C 35.9°F2.2°C 76% 5.8 mph WNW9.3 kmh WNW 8.1 mph13.0 kmh 30.37 in1028.4 mb - 0.00 in0.0 mm 0.00 in0.0 mm
07:50 AM 42.6°F5.9°C 35.9°F2.2°C 77% 5.8 mph NW9.3 kmh NW 10.4 mph16.7 kmh 30.37 in1028.4 mb - 0.00 in0.0 mm 0.00 in0.0 mm
07:40 AM 42.3°F5.7°C 36.3°F2.4°C 79% 6.9 mph NW11.1 kmh NW 11.5 mph18.5 kmh 30.37 in1028.4 mb - 0.00 in0.0 mm 0.00 in0.0 mm
07:30 AM 42.1°F5.6°C 36.4°F2.4°C 80% 6.9 mph NW11.1 kmh NW 10.4 mph16.7 kmh 30.37 in1028.4 mb - 0.00 in0.0 mm 0.00 in0.0 mm
07:20 AM 41.9°F5.5°C 36.5°F2.5°C 81% 6.9 mph NW11.1 kmh NW 9.2 mph14.8 kmh 30.37 in1028.4 mb - 0.00 in0.0 mm 0.00 in0.0 mm
07:10 AM 42.2°F5.7°C 36.5°F2.5°C 80% 6.9 mph NW11.1 kmh NW 8.1 mph13.0 kmh 30.37 in1028.4 mb - 0.00 in0.0 mm 0.00 in0.0 mm
07:00 AM 42.4°F5.8°C 36.6°F2.6°C 80% 8.1 mph NW13.0 kmh NW 11.5 mph18.5 kmh 30.37 in1028.4 mb - 0.00 in0.0 mm 0.00 in0.0 mm
06:50 AM 42.4°F5.8°C 36.7°F2.6°C 80% 8.1 mph NW13.0 kmh NW 11.5 mph18.5 kmh 30.37 in1028.4 mb - 0.00 in0.0 mm 0.00 in0.0 mm
06:40 AM 42.2°F5.7°C 36.8°F2.7°C 81% 6.9 mph NW11.1 kmh NW 9.2 mph14.8 kmh 30.37 in1028.4 mb - 0.00 in0.0 mm 0.00 in0.0 mm
06:30 AM 41.9°F5.5°C 36.9°F2.7°C 82% 5.8 mph WNW9.3 kmh WNW 8.1 mph13.0 kmh 30.36 in1028.1 mb - 0.00 in0.0 mm 0.00 in0.0 mm
06:20 AM 41.9°F5.5°C 37.1°F2.8°C 83% 1.2 mph WNW1.9 kmh WNW 4.6 mph7.4 kmh 30.36 in1028.1 mb - 0.00 in0.0 mm 0.00 in0.0 mm
06:10 AM 41.7°F5.4°C 37.2°F2.9°C 84% 1.2 mph WNW1.9 kmh WNW 3.5 mph5.6 kmh 30.36 in1028.1 mb - 0.00 in0.0 mm 0.00 in0.0 mm
06:00 AM 41.7°F5.4°C 37.5°F3.1°C 85% 2.3 mph WNW3.7 kmh WNW 3.5 mph5.6 kmh 30.36 in1028.1 mb - 0.00 in0.0 mm 0.00 in0.0 mm
05:50 AM 41.7°F5.4°C 37.5°F3.1°C 85% 1.2 mph WNW1.9 kmh WNW 2.3 mph3.7 kmh 30.36 in1028.1 mb - 0.00 in0.0 mm 0.00 in0.0 mm
05:40 AM 41.8°F5.4°C 37.9°F3.3°C 86% 1.2 mph WNW1.9 kmh WNW 2.3 mph3.7 kmh 30.36 in1028.1 mb - 0.00 in0.0 mm 0.00 in0.0 mm
05:30 AM 41.7°F5.4°C 37.8°F3.2°C 86% 1.2 mph SW1.9 kmh SW 3.5 mph5.6 kmh 30.36 in1028.1 mb - 0.00 in0.0 mm 0.00 in0.0 mm
05:20 AM 41.6°F5.3°C 38.0°F3.3°C 87% 1.2 mph W1.9 kmh W 4.6 mph7.4 kmh 30.36 in1028.1 mb - 0.00 in0.0 mm 0.00 in0.0 mm
05:10 AM 41.5°F5.3°C 37.9°F3.3°C 87% 1.2 mph NNE1.9 kmh NNE 3.5 mph5.6 kmh 30.36 in1028.1 mb - 0.00 in0.0 mm 0.00 in0.0 mm
05:00 AM 41.5°F5.3°C 37.9°F3.3°C 87% Calm Calm 2.3 mph3.7 kmh 30.36 in1028.1 mb - 0.00 in0.0 mm 0.00 in0.0 mm
04:50 AM 41.5°F5.3°C 38.2°F3.4°C 88% 2.3 mph WNW3.7 kmh WNW 3.5 mph5.6 kmh 30.36 in1028.1 mb - 0.00 in0.0 mm 0.00 in0.0 mm
04:40 AM 41.3°F5.2°C 38.3°F3.5°C 89% 2.3 mph WNW3.7 kmh WNW 3.5 mph5.6 kmh 30.36 in1028.1 mb - 0.00 in0.0 mm 0.00 in0.0 mm
04:30 AM 41.3°F5.2°C 38.3°F3.5°C 89% 1.2 mph WSW1.9 kmh WSW 2.3 mph3.7 kmh 30.35 in1027.8 mb - 0.00 in0.0 mm 0.00 in0.0 mm
04:20 AM 41.3°F5.2°C 38.6°F3.7°C 90% 1.2 mph W1.9 kmh W 3.5 mph5.6 kmh 30.36 in1028.1 mb - 0.00 in0.0 mm 0.00 in0.0 mm
04:10 AM 41.3°F5.2°C 38.6°F3.7°C 90% 1.2 mph SW1.9 kmh SW 1.2 mph1.9 kmh 30.36 in1028.1 mb - 0.00 in0.0 mm 0.00 in0.0 mm
04:00 AM 41.4°F5.2°C 38.7°F3.7°C 90% 2.3 mph SW3.7 kmh SW 6.9 mph11.1 kmh 30.35 in1027.8 mb - 0.00 in0.0 mm 0.00 in0.0 mm
03:50 AM 41.4°F5.2°C 38.6°F3.7°C 90% 2.3 mph WNW3.7 kmh WNW 3.5 mph5.6 kmh 30.35 in1027.8 mb - 0.00 in0.0 mm 0.00 in0.0 mm
03:40 AM 41.5°F5.3°C 38.8°F3.8°C 90% 2.3 mph SW3.7 kmh SW 4.6 mph7.4 kmh 30.35 in1027.8 mb - 0.00 in0.0 mm 0.00 in0.0 mm
03:30 AM 41.5°F5.3°C 38.8°F3.8°C 90% 1.2 mph SSW1.9 kmh SSW 4.6 mph7.4 kmh 30.36 in1028.1 mb - 0.00 in0.0 mm 0.00 in0.0 mm
03:20 AM 41.4°F5.2°C 38.7°F3.7°C 90% 2.3 mph NW3.7 kmh NW 3.5 mph5.6 kmh 30.35 in1027.8 mb - 0.00 in0.0 mm 0.00 in0.0 mm
03:10 AM 41.5°F5.3°C 38.8°F3.8°C 90% 2.3 mph WSW3.7 kmh WSW 4.6 mph7.4 kmh 30.35 in1027.8 mb - 0.00 in0.0 mm 0.00 in0.0 mm
03:00 AM 41.5°F5.3°C 39.1°F3.9°C 91% 3.5 mph SSW5.6 kmh SSW 8.1 mph13.0 kmh 30.36 in1028.1 mb - 0.00 in0.0 mm 0.00 in0.0 mm
02:50 AM 41.5°F5.3°C 39.1°F3.9°C 91% 2.3 mph SW3.7 kmh SW 8.1 mph13.0 kmh 30.36 in1028.1 mb - 0.00 in0.0 mm 0.00 in0.0 mm
02:40 AM 41.5°F5.3°C 39.1°F3.9°C 91% 2.3 mph SW3.7 kmh SW 3.5 mph5.6 kmh 30.37 in1028.4 mb - 0.00 in0.0 mm 0.00 in0.0 mm
02:30 AM 41.5°F5.3°C 39.3°F4.1°C 92% 3.5 mph SW5.6 kmh SW 6.9 mph11.1 kmh 30.36 in1028.1 mb - 0.00 in0.0 mm 0.00 in0.0 mm
02:20 AM 41.5°F5.3°C 39.3°F4.1°C 92% 3.5 mph SW5.6 kmh SW 5.8 mph9.3 kmh 30.36 in1028.1 mb - 0.00 in0.0 mm 0.00 in0.0 mm
02:10 AM 41.4°F5.2°C 39.5°F4.2°C 93% 2.3 mph SSW3.7 kmh SSW 3.5 mph5.6 kmh 30.36 in1028.1 mb - 0.00 in0.0 mm 0.00 in0.0 mm
02:00 AM 41.4°F5.2°C 39.5°F4.2°C 93% 2.3 mph NNW3.7 kmh NNW 3.5 mph5.6 kmh 30.36 in1028.1 mb - 0.00 in0.0 mm 0.00 in0.0 mm
01:50 AM 41.4°F5.2°C 39.8°F4.3°C 94% 2.3 mph S3.7 kmh S 6.9 mph11.1 kmh 30.36 in1028.1 mb - 0.00 in0.0 mm 0.00 in0.0 mm
01:40 AM 41.3°F5.2°C 39.7°F4.3°C 94% 1.2 mph SW1.9 kmh SW 4.6 mph7.4 kmh 30.36 in1028.1 mb - 0.00 in0.0 mm 0.00 in0.0 mm
01:30 AM 41.3°F5.2°C 40.0°F4.4°C 95% 3.5 mph SW5.6 kmh SW 8.1 mph13.0 kmh 30.36 in1028.1 mb - 0.00 in0.0 mm 0.00 in0.0 mm
01:20 AM 41.3°F5.2°C 40.0°F4.4°C 95% 2.3 mph SW3.7 kmh SW 8.1 mph13.0 kmh 30.36 in1028.1 mb - 0.00 in0.0 mm 0.00 in0.0 mm
01:10 AM 41.4°F5.2°C 40.1°F4.5°C 95% 2.3 mph N3.7 kmh N 5.8 mph9.3 kmh 30.36 in1028.1 mb - 0.00 in0.0 mm 0.00 in0.0 mm
01:00 AM 41.4°F5.2°C 40.1°F4.5°C 95% 3.5 mph SW5.6 kmh SW 3.5 mph5.6 kmh 30.36 in1028.1 mb - 0.00 in0.0 mm 0.00 in0.0 mm
12:50 AM 41.3°F5.2°C 39.7°F4.3°C 94% 2.3 mph SSW3.7 kmh SSW 4.6 mph7.4 kmh 30.36 in1028.1 mb - 0.00 in0.0 mm 0.00 in0.0 mm
12:40 AM 41.4°F5.2°C 39.8°F4.3°C 94% 3.5 mph SW5.6 kmh SW 9.2 mph14.8 kmh 30.36 in1028.1 mb - 0.00 in0.0 mm 0.00 in0.0 mm
12:30 AM 41.4°F5.2°C 39.8°F4.3°C 94% 2.3 mph WSW3.7 kmh WSW 6.9 mph11.1 kmh 30.36 in1028.1 mb - 0.00 in0.0 mm 0.00 in0.0 mm
12:20 AM 41.4°F5.2°C 39.8°F4.3°C 94% 4.6 mph SW7.4 kmh SW 9.2 mph14.8 kmh 30.36 in1028.1 mb - 0.00 in0.0 mm 0.00 in0.0 mm
12:10 AM 41.5°F5.3°C 39.9°F4.4°C 94% 5.8 mph WSW9.3 kmh WSW 8.1 mph13.0 kmh 30.36 in1028.1 mb - 0.00 in0.0 mm 0.00 in0.0 mm
12:00 AM 41.5°F5.3°C 39.9°F4.4°C 94% 3.5 mph SSW5.6 kmh SSW 9.2 mph14.8 kmh 30.37 in1028.4 mb - 0.00 in0.0 mm 0.00 in0.0 mm